sensor_id;sensor_type;location;lat;lon;timestamp;P1;durP1;ratioP1;P2;durP2;ratioP2
19301;SDS011;9785;59.362;12.152;2023-01-29T00:02:04;0.97;;;0.73;;
19301;SDS011;9785;59.362;12.152;2023-01-29T00:04:33;1.10;;;0.90;;
19301;SDS011;9785;59.362;12.152;2023-01-29T00:07:02;0.83;;;0.70;;
19301;SDS011;9785;59.362;12.152;2023-01-29T00:09:32;1.93;;;0.60;;
19301;SDS011;9785;59.362;12.152;2023-01-29T00:12:00;4.10;;;1.10;;
19301;SDS011;9785;59.362;12.152;2023-01-29T00:14:29;1.47;;;0.83;;
19301;SDS011;9785;59.362;12.152;2023-01-29T00:16:57;3.20;;;0.70;;
19301;SDS011;9785;59.362;12.152;2023-01-29T00:19:26;0.57;;;0.47;;
19301;SDS011;9785;59.362;12.152;2023-01-29T00:21:55;0.70;;;0.70;;
19301;SDS011;9785;59.362;12.152;2023-01-29T00:24:23;1.17;;;0.67;;
19301;SDS011;9785;59.362;12.152;2023-01-29T00:26:53;0.80;;;0.80;;
19301;SDS011;9785;59.362;12.152;2023-01-29T00:29:22;2.27;;;0.60;;
19301;SDS011;9785;59.362;12.152;2023-01-29T00:31:50;2.03;;;0.60;;
19301;SDS011;9785;59.362;12.152;2023-01-29T00:34:19;1.97;;;0.67;;
19301;SDS011;9785;59.362;12.152;2023-01-29T00:36:48;2.80;;;0.90;;
19301;SDS011;9785;59.362;12.152;2023-01-29T00:39:17;3.27;;;0.90;;
19301;SDS011;9785;59.362;12.152;2023-01-29T00:42:06;3.37;;;0.70;;
19301;SDS011;9785;59.362;12.152;2023-01-29T00:44:52;1.53;;;0.60;;
19301;SDS011;9785;59.362;12.152;2023-01-29T00:47:26;3.87;;;0.77;;
19301;SDS011;9785;59.362;12.152;2023-01-29T00:49:59;2.53;;;0.80;;
19301;SDS011;9785;59.362;12.152;2023-01-29T00:52:28;0.90;;;0.70;;
19301;SDS011;9785;59.362;12.152;2023-01-29T00:54:57;2.70;;;0.70;;
19301;SDS011;9785;59.362;12.152;2023-01-29T00:57:28;2.17;;;0.90;;
19301;SDS011;9785;59.362;12.152;2023-01-29T00:59:58;2.17;;;0.70;;
19301;SDS011;9785;59.362;12.152;2023-01-29T01:02:26;2.83;;;0.90;;
19301;SDS011;9785;59.362;12.152;2023-01-29T01:05:13;3.13;;;0.70;;
19301;SDS011;9785;59.362;12.152;2023-01-29T01:07:43;6.30;;;0.93;;
19301;SDS011;9785;59.362;12.152;2023-01-29T01:10:12;4.77;;;0.83;;
19301;SDS011;9785;59.362;12.152;2023-01-29T01:12:49;1.43;;;0.90;;
19301;SDS011;9785;59.362;12.152;2023-01-29T01:15:19;1.43;;;1.10;;
19301;SDS011;9785;59.362;12.152;2023-01-29T01:17:50;0.93;;;0.83;;
19301;SDS011;9785;59.362;12.152;2023-01-29T01:20:19;1.90;;;0.73;;
19301;SDS011;9785;59.362;12.152;2023-01-29T01:22:47;1.53;;;0.70;;
19301;SDS011;9785;59.362;12.152;2023-01-29T01:25:16;4.87;;;1.00;;
19301;SDS011;9785;59.362;12.152;2023-01-29T01:27:45;2.53;;;1.10;;
19301;SDS011;9785;59.362;12.152;2023-01-29T01:30:15;1.50;;;0.83;;
19301;SDS011;9785;59.362;12.152;2023-01-29T01:32:44;1.83;;;0.90;;
19301;SDS011;9785;59.362;12.152;2023-01-29T01:35:13;3.63;;;0.80;;
19301;SDS011;9785;59.362;12.152;2023-01-29T01:37:41;2.40;;;0.87;;
19301;SDS011;9785;59.362;12.152;2023-01-29T01:40:11;1.37;;;0.80;;
19301;SDS011;9785;59.362;12.152;2023-01-29T01:42:44;0.60;;;0.60;;
19301;SDS011;9785;59.362;12.152;2023-01-29T01:45:20;4.77;;;0.80;;
19301;SDS011;9785;59.362;12.152;2023-01-29T01:47:50;3.50;;;0.60;;
19301;SDS011;9785;59.362;12.152;2023-01-29T01:50:20;4.57;;;0.70;;
19301;SDS011;9785;59.362;12.152;2023-01-29T01:52:50;1.23;;;0.80;;
19301;SDS011;9785;59.362;12.152;2023-01-29T01:55:20;3.70;;;0.90;;
19301;SDS011;9785;59.362;12.152;2023-01-29T01:57:51;3.17;;;0.60;;
19301;SDS011;9785;59.362;12.152;2023-01-29T02:00:21;2.40;;;0.80;;
19301;SDS011;9785;59.362;12.152;2023-01-29T02:02:52;3.97;;;0.90;;
19301;SDS011;9785;59.362;12.152;2023-01-29T02:05:39;1.47;;;0.43;;
19301;SDS011;9785;59.362;12.152;2023-01-29T02:08:27;2.10;;;0.70;;
19301;SDS011;9785;59.362;12.152;2023-01-29T02:11:14;2.20;;;0.80;;
19301;SDS011;9785;59.362;12.152;2023-01-29T02:13:44;2.00;;;0.70;;
19301;SDS011;9785;59.362;12.152;2023-01-29T02:16:13;0.83;;;0.70;;
19301;SDS011;9785;59.362;12.152;2023-01-29T02:18:42;2.60;;;0.80;;
19301;SDS011;9785;59.362;12.152;2023-01-29T02:21:14;3.67;;;0.73;;
19301;SDS011;9785;59.362;12.152;2023-01-29T02:23:58;1.90;;;0.60;;
19301;SDS011;9785;59.362;12.152;2023-01-29T02:26:38;0.93;;;0.57;;
19301;SDS011;9785;59.362;12.152;2023-01-29T02:29:09;1.00;;;0.90;;
19301;SDS011;9785;59.362;12.152;2023-01-29T02:31:52;1.43;;;0.53;;
19301;SDS011;9785;59.362;12.152;2023-01-29T02:34:27;2.33;;;0.83;;
19301;SDS011;9785;59.362;12.152;2023-01-29T02:37:17;3.63;;;0.80;;
19301;SDS011;9785;59.362;12.152;2023-01-29T02:39:49;3.23;;;0.77;;
19301;SDS011;9785;59.362;12.152;2023-01-29T02:42:26;3.40;;;0.50;;
19301;SDS011;9785;59.362;12.152;2023-01-29T02:44:58;1.30;;;0.50;;
19301;SDS011;9785;59.362;12.152;2023-01-29T02:47:29;1.47;;;0.87;;
19301;SDS011;9785;59.362;12.152;2023-01-29T02:49:59;1.20;;;0.73;;
19301;SDS011;9785;59.362;12.152;2023-01-29T02:52:31;1.57;;;1.20;;
19301;SDS011;9785;59.362;12.152;2023-01-29T02:55:03;1.93;;;0.77;;
19301;SDS011;9785;59.362;12.152;2023-01-29T02:57:36;1.33;;;0.57;;
19301;SDS011;9785;59.362;12.152;2023-01-29T03:00:08;2.23;;;0.70;;
19301;SDS011;9785;59.362;12.152;2023-01-29T03:02:40;2.27;;;0.70;;
19301;SDS011;9785;59.362;12.152;2023-01-29T03:05:10;2.97;;;0.53;;
19301;SDS011;9785;59.362;12.152;2023-01-29T03:07:42;2.33;;;0.63;;
19301;SDS011;9785;59.362;12.152;2023-01-29T03:10:15;0.93;;;0.60;;
19301;SDS011;9785;59.362;12.152;2023-01-29T03:12:45;0.70;;;0.60;;
19301;SDS011;9785;59.362;12.152;2023-01-29T03:15:17;0.53;;;0.50;;
19301;SDS011;9785;59.362;12.152;2023-01-29T03:17:51;3.30;;;0.80;;
19301;SDS011;9785;59.362;12.152;2023-01-29T03:20:22;2.00;;;0.80;;
19301;SDS011;9785;59.362;12.152;2023-01-29T03:22:54;0.50;;;0.50;;
19301;SDS011;9785;59.362;12.152;2023-01-29T03:25:24;2.70;;;0.40;;
19301;SDS011;9785;59.362;12.152;2023-01-29T03:28:11;2.27;;;0.60;;
19301;SDS011;9785;59.362;12.152;2023-01-29T03:31:01;3.93;;;0.93;;
19301;SDS011;9785;59.362;12.152;2023-01-29T03:33:49;3.03;;;0.50;;
19301;SDS011;9785;59.362;12.152;2023-01-29T03:36:20;2.53;;;0.57;;
19301;SDS011;9785;59.362;12.152;2023-01-29T03:38:49;1.20;;;0.50;;
19301;SDS011;9785;59.362;12.152;2023-01-29T03:41:21;2.07;;;0.43;;
19301;SDS011;9785;59.362;12.152;2023-01-29T03:43:51;1.10;;;0.53;;
19301;SDS011;9785;59.362;12.152;2023-01-29T03:46:24;1.33;;;0.80;;
19301;SDS011;9785;59.362;12.152;2023-01-29T03:48:57;3.50;;;0.50;;
19301;SDS011;9785;59.362;12.152;2023-01-29T03:51:29;0.50;;;0.50;;
19301;SDS011;9785;59.362;12.152;2023-01-29T03:54:02;1.60;;;0.50;;
19301;SDS011;9785;59.362;12.152;2023-01-29T03:56:33;1.40;;;0.50;;
19301;SDS011;9785;59.362;12.152;2023-01-29T03:59:05;1.37;;;0.80;;
19301;SDS011;9785;59.362;12.152;2023-01-29T04:01:39;1.30;;;0.77;;
19301;SDS011;9785;59.362;12.152;2023-01-29T04:04:10;1.23;;;0.60;;
19301;SDS011;9785;59.362;12.152;2023-01-29T04:06:42;1.37;;;0.63;;
19301;SDS011;9785;59.362;12.152;2023-01-29T04:09:12;5.53;;;1.10;;
19301;SDS011;9785;59.362;12.152;2023-01-29T04:11:43;2.80;;;0.50;;
19301;SDS011;9785;59.362;12.152;2023-01-29T04:14:12;1.53;;;0.33;;
19301;SDS011;9785;59.362;12.152;2023-01-29T04:16:43;2.80;;;1.27;;
19301;SDS011;9785;59.362;12.152;2023-01-29T04:19:15;1.17;;;0.47;;
19301;SDS011;9785;59.362;12.152;2023-01-29T04:21:43;1.60;;;0.60;;
19301;SDS011;9785;59.362;12.152;2023-01-29T04:24:14;0.33;;;0.33;;
19301;SDS011;9785;59.362;12.152;2023-01-29T04:26:47;3.13;;;0.77;;
19301;SDS011;9785;59.362;12.152;2023-01-29T04:29:20;3.50;;;0.90;;
19301;SDS011;9785;59.362;12.152;2023-01-29T04:31:58;2.10;;;0.67;;
19301;SDS011;9785;59.362;12.152;2023-01-29T04:34:28;3.20;;;0.57;;
19301;SDS011;9785;59.362;12.152;2023-01-29T04:37:03;2.87;;;0.60;;
19301;SDS011;9785;59.362;12.152;2023-01-29T04:39:35;1.33;;;0.60;;
19301;SDS011;9785;59.362;12.152;2023-01-29T04:42:11;2.30;;;0.50;;
19301;SDS011;9785;59.362;12.152;2023-01-29T04:44:41;0.40;;;0.40;;
19301;SDS011;9785;59.362;12.152;2023-01-29T04:47:15;2.10;;;0.40;;
19301;SDS011;9785;59.362;12.152;2023-01-29T04:49:46;1.50;;;0.40;;
19301;SDS011;9785;59.362;12.152;2023-01-29T04:52:19;1.23;;;0.57;;
19301;SDS011;9785;59.362;12.152;2023-01-29T04:54:51;2.33;;;0.50;;
19301;SDS011;9785;59.362;12.152;2023-01-29T04:57:23;2.53;;;0.40;;
19301;SDS011;9785;59.362;12.152;2023-01-29T04:59:55;0.60;;;0.17;;
19301;SDS011;9785;59.362;12.152;2023-01-29T05:02:26;2.10;;;0.50;;
19301;SDS011;9785;59.362;12.152;2023-01-29T05:04:55;4.63;;;0.43;;
19301;SDS011;9785;59.362;12.152;2023-01-29T05:07:25;3.97;;;0.40;;
19301;SDS011;9785;59.362;12.152;2023-01-29T05:09:55;4.07;;;0.53;;
19301;SDS011;9785;59.362;12.152;2023-01-29T05:12:24;1.23;;;0.47;;
19301;SDS011;9785;59.362;12.152;2023-01-29T05:14:53;3.00;;;0.60;;
19301;SDS011;9785;59.362;12.152;2023-01-29T05:17:23;1.70;;;0.30;;
19301;SDS011;9785;59.362;12.152;2023-01-29T05:19:53;1.70;;;0.73;;
19301;SDS011;9785;59.362;12.152;2023-01-29T05:22:22;0.90;;;0.40;;
19301;SDS011;9785;59.362;12.152;2023-01-29T05:24:51;1.03;;;0.40;;
19301;SDS011;9785;59.362;12.152;2023-01-29T05:27:21;4.00;;;0.63;;
19301;SDS011;9785;59.362;12.152;2023-01-29T05:30:09;2.87;;;0.50;;
19301;SDS011;9785;59.362;12.152;2023-01-29T05:32:38;3.40;;;0.30;;
19301;SDS011;9785;59.362;12.152;2023-01-29T05:35:08;3.90;;;0.40;;
19301;SDS011;9785;59.362;12.152;2023-01-29T05:37:36;3.70;;;0.40;;
19301;SDS011;9785;59.362;12.152;2023-01-29T05:40:05;0.20;;;0.20;;
19301;SDS011;9785;59.362;12.152;2023-01-29T05:42:35;1.50;;;0.20;;
19301;SDS011;9785;59.362;12.152;2023-01-29T05:45:03;0.57;;;0.20;;
19301;SDS011;9785;59.362;12.152;2023-01-29T05:47:32;1.13;;;0.37;;
19301;SDS011;9785;59.362;12.152;2023-01-29T05:50:01;1.57;;;0.30;;
19301;SDS011;9785;59.362;12.152;2023-01-29T05:52:31;1.60;;;0.23;;
19301;SDS011;9785;59.362;12.152;2023-01-29T05:54:59;0.50;;;0.20;;
19301;SDS011;9785;59.362;12.152;2023-01-29T05:57:28;2.13;;;0.33;;
19301;SDS011;9785;59.362;12.152;2023-01-29T05:59:57;1.57;;;0.53;;
19301;SDS011;9785;59.362;12.152;2023-01-29T06:02:27;2.17;;;0.20;;
19301;SDS011;9785;59.362;12.152;2023-01-29T06:04:56;0.30;;;0.30;;
19301;SDS011;9785;59.362;12.152;2023-01-29T06:07:25;2.93;;;0.47;;
19301;SDS011;9785;59.362;12.152;2023-01-29T06:09:55;1.17;;;0.33;;
19301;SDS011;9785;59.362;12.152;2023-01-29T06:12:25;1.90;;;0.50;;
19301;SDS011;9785;59.362;12.152;2023-01-29T06:14:53;2.00;;;0.37;;
19301;SDS011;9785;59.362;12.152;2023-01-29T06:17:22;2.20;;;0.30;;
19301;SDS011;9785;59.362;12.152;2023-01-29T06:19:50;3.33;;;0.50;;
19301;SDS011;9785;59.362;12.152;2023-01-29T06:22:19;2.13;;;0.40;;
19301;SDS011;9785;59.362;12.152;2023-01-29T06:24:48;2.30;;;0.40;;
19301;SDS011;9785;59.362;12.152;2023-01-29T06:27:18;2.40;;;0.30;;
19301;SDS011;9785;59.362;12.152;2023-01-29T06:29:46;1.60;;;0.50;;
19301;SDS011;9785;59.362;12.152;2023-01-29T06:32:15;1.50;;;0.40;;
19301;SDS011;9785;59.362;12.152;2023-01-29T06:34:43;0.90;;;0.40;;
19301;SDS011;9785;59.362;12.152;2023-01-29T06:37:15;1.83;;;0.53;;
19301;SDS011;9785;59.362;12.152;2023-01-29T06:39:43;1.60;;;0.37;;
19301;SDS011;9785;59.362;12.152;2023-01-29T06:42:12;3.37;;;0.40;;
19301;SDS011;9785;59.362;12.152;2023-01-29T06:44:42;4.00;;;0.50;;
19301;SDS011;9785;59.362;12.152;2023-01-29T06:47:11;2.67;;;0.40;;
19301;SDS011;9785;59.362;12.152;2023-01-29T06:49:40;2.23;;;0.33;;
19301;SDS011;9785;59.362;12.152;2023-01-29T06:52:10;3.43;;;0.80;;
19301;SDS011;9785;59.362;12.152;2023-01-29T06:54:38;2.60;;;0.40;;
19301;SDS011;9785;59.362;12.152;2023-01-29T06:57:07;2.90;;;0.40;;
19301;SDS011;9785;59.362;12.152;2023-01-29T06:59:35;2.80;;;0.60;;
19301;SDS011;9785;59.362;12.152;2023-01-29T07:02:05;3.07;;;0.73;;
19301;SDS011;9785;59.362;12.152;2023-01-29T07:04:35;2.93;;;0.60;;
19301;SDS011;9785;59.362;12.152;2023-01-29T07:07:04;1.33;;;0.60;;
19301;SDS011;9785;59.362;12.152;2023-01-29T07:09:38;4.10;;;0.70;;
19301;SDS011;9785;59.362;12.152;2023-01-29T07:12:07;5.47;;;0.60;;
19301;SDS011;9785;59.362;12.152;2023-01-29T07:14:36;3.53;;;0.50;;
19301;SDS011;9785;59.362;12.152;2023-01-29T07:17:06;5.30;;;0.80;;
19301;SDS011;9785;59.362;12.152;2023-01-29T07:19:34;3.07;;;0.80;;
19301;SDS011;9785;59.362;12.152;2023-01-29T07:22:03;2.33;;;0.57;;
19301;SDS011;9785;59.362;12.152;2023-01-29T07:24:31;1.80;;;0.40;;
19301;SDS011;9785;59.362;12.152;2023-01-29T07:27:00;4.07;;;0.83;;
19301;SDS011;9785;59.362;12.152;2023-01-29T07:29:28;0.47;;;0.40;;
19301;SDS011;9785;59.362;12.152;2023-01-29T07:31:57;5.40;;;1.00;;
19301;SDS011;9785;59.362;12.152;2023-01-29T07:34:27;2.93;;;0.77;;
19301;SDS011;9785;59.362;12.152;2023-01-29T07:36:56;3.00;;;0.70;;
19301;SDS011;9785;59.362;12.152;2023-01-29T07:39:25;1.57;;;0.80;;
19301;SDS011;9785;59.362;12.152;2023-01-29T07:41:53;9.47;;;1.30;;
19301;SDS011;9785;59.362;12.152;2023-01-29T07:44:22;5.40;;;1.37;;
19301;SDS011;9785;59.362;12.152;2023-01-29T07:46:50;5.03;;;1.47;;
19301;SDS011;9785;59.362;12.152;2023-01-29T07:49:19;5.97;;;1.20;;
19301;SDS011;9785;59.362;12.152;2023-01-29T07:51:49;7.17;;;0.97;;
19301;SDS011;9785;59.362;12.152;2023-01-29T07:54:17;11.63;;;1.30;;
19301;SDS011;9785;59.362;12.152;2023-01-29T07:56:46;8.77;;;1.20;;
19301;SDS011;9785;59.362;12.152;2023-01-29T07:59:14;4.83;;;0.87;;
19301;SDS011;9785;59.362;12.152;2023-01-29T08:01:43;6.63;;;1.10;;
19301;SDS011;9785;59.362;12.152;2023-01-29T08:04:12;3.50;;;1.40;;
19301;SDS011;9785;59.362;12.152;2023-01-29T08:06:40;5.00;;;1.00;;
19301;SDS011;9785;59.362;12.152;2023-01-29T08:09:10;10.00;;;2.60;;
19301;SDS011;9785;59.362;12.152;2023-01-29T08:11:39;8.20;;;1.40;;
19301;SDS011;9785;59.362;12.152;2023-01-29T08:14:07;6.93;;;1.27;;
19301;SDS011;9785;59.362;12.152;2023-01-29T08:16:37;5.17;;;1.43;;
19301;SDS011;9785;59.362;12.152;2023-01-29T08:19:05;8.60;;;1.30;;
19301;SDS011;9785;59.362;12.152;2023-01-29T08:21:34;6.37;;;0.90;;
19301;SDS011;9785;59.362;12.152;2023-01-29T08:24:03;5.90;;;1.10;;
19301;SDS011;9785;59.362;12.152;2023-01-29T08:26:33;8.07;;;1.00;;
19301;SDS011;9785;59.362;12.152;2023-01-29T08:29:03;11.07;;;1.43;;
19301;SDS011;9785;59.362;12.152;2023-01-29T08:31:32;13.00;;;2.27;;
19301;SDS011;9785;59.362;12.152;2023-01-29T08:34:01;6.20;;;1.33;;
19301;SDS011;9785;59.362;12.152;2023-01-29T08:36:30;8.13;;;1.10;;
19301;SDS011;9785;59.362;12.152;2023-01-29T08:38:59;9.63;;;1.50;;
19301;SDS011;9785;59.362;12.152;2023-01-29T08:41:27;4.23;;;1.17;;
19301;SDS011;9785;59.362;12.152;2023-01-29T08:43:57;5.60;;;1.63;;
19301;SDS011;9785;59.362;12.152;2023-01-29T08:46:27;11.43;;;1.33;;
19301;SDS011;9785;59.362;12.152;2023-01-29T08:48:56;9.60;;;1.43;;
19301;SDS011;9785;59.362;12.152;2023-01-29T08:51:24;9.60;;;1.43;;
19301;SDS011;9785;59.362;12.152;2023-01-29T08:53:53;9.97;;;1.60;;
19301;SDS011;9785;59.362;12.152;2023-01-29T08:56:22;10.53;;;1.50;;
19301;SDS011;9785;59.362;12.152;2023-01-29T08:58:50;8.20;;;1.60;;
19301;SDS011;9785;59.362;12.152;2023-01-29T09:01:20;7.87;;;1.37;;
19301;SDS011;9785;59.362;12.152;2023-01-29T09:03:49;7.90;;;2.23;;
19301;SDS011;9785;59.362;12.152;2023-01-29T09:06:18;12.67;;;2.40;;
19301;SDS011;9785;59.362;12.152;2023-01-29T09:08:46;9.43;;;1.43;;
19301;SDS011;9785;59.362;12.152;2023-01-29T09:11:15;3.53;;;0.90;;
19301;SDS011;9785;59.362;12.152;2023-01-29T09:13:44;11.23;;;1.10;;
19301;SDS011;9785;59.362;12.152;2023-01-29T09:16:12;5.37;;;1.00;;
19301;SDS011;9785;59.362;12.152;2023-01-29T09:18:42;10.20;;;1.10;;
19301;SDS011;9785;59.362;12.152;2023-01-29T09:21:11;5.27;;;0.90;;
19301;SDS011;9785;59.362;12.152;2023-01-29T09:23:39;10.27;;;1.40;;
19301;SDS011;9785;59.362;12.152;2023-01-29T09:26:08;9.83;;;1.10;;
19301;SDS011;9785;59.362;12.152;2023-01-29T09:28:36;5.13;;;1.07;;
19301;SDS011;9785;59.362;12.152;2023-01-29T09:31:05;6.50;;;1.33;;
19301;SDS011;9785;59.362;12.152;2023-01-29T09:33:34;4.70;;;1.17;;
19301;SDS011;9785;59.362;12.152;2023-01-29T09:36:06;4.50;;;1.10;;
19301;SDS011;9785;59.362;12.152;2023-01-29T09:38:35;6.10;;;1.27;;
19301;SDS011;9785;59.362;12.152;2023-01-29T09:41:05;6.50;;;0.90;;
19301;SDS011;9785;59.362;12.152;2023-01-29T09:43:39;4.27;;;0.83;;
19301;SDS011;9785;59.362;12.152;2023-01-29T09:46:13;2.40;;;0.60;;
19301;SDS011;9785;59.362;12.152;2023-01-29T09:48:43;5.63;;;1.10;;
19301;SDS011;9785;59.362;12.152;2023-01-29T09:51:15;5.07;;;0.97;;
19301;SDS011;9785;59.362;12.152;2023-01-29T09:53:50;6.23;;;1.43;;
19301;SDS011;9785;59.362;12.152;2023-01-29T09:56:21;7.63;;;0.97;;
19301;SDS011;9785;59.362;12.152;2023-01-29T09:58:55;6.67;;;1.00;;
19301;SDS011;9785;59.362;12.152;2023-01-29T10:01:28;3.67;;;0.87;;
19301;SDS011;9785;59.362;12.152;2023-01-29T10:04:06;2.57;;;0.70;;
19301;SDS011;9785;59.362;12.152;2023-01-29T10:06:44;4.53;;;0.63;;
19301;SDS011;9785;59.362;12.152;2023-01-29T10:09:25;5.10;;;0.90;;
19301;SDS011;9785;59.362;12.152;2023-01-29T10:11:59;2.53;;;0.50;;
19301;SDS011;9785;59.362;12.152;2023-01-29T10:14:32;4.30;;;0.80;;
19301;SDS011;9785;59.362;12.152;2023-01-29T10:17:07;6.60;;;1.00;;
19301;SDS011;9785;59.362;12.152;2023-01-29T10:19:42;4.20;;;0.70;;
19301;SDS011;9785;59.362;12.152;2023-01-29T10:24:59;2.47;;;0.70;;
19301;SDS011;9785;59.362;12.152;2023-01-29T10:27:30;1.97;;;0.70;;
19301;SDS011;9785;59.362;12.152;2023-01-29T10:29:59;1.90;;;0.50;;
19301;SDS011;9785;59.362;12.152;2023-01-29T10:32:29;7.33;;;0.70;;
19301;SDS011;9785;59.362;12.152;2023-01-29T10:34:59;6.30;;;0.60;;
19301;SDS011;9785;59.362;12.152;2023-01-29T10:37:33;2.93;;;0.67;;
19301;SDS011;9785;59.362;12.152;2023-01-29T10:40:14;3.03;;;0.53;;
19301;SDS011;9785;59.362;12.152;2023-01-29T10:42:45;5.73;;;0.80;;
19301;SDS011;9785;59.362;12.152;2023-01-29T10:45:19;3.23;;;0.63;;
19301;SDS011;9785;59.362;12.152;2023-01-29T10:50:41;2.70;;;0.40;;
19301;SDS011;9785;59.362;12.152;2023-01-29T10:53:20;1.57;;;0.50;;
19301;SDS011;9785;59.362;12.152;2023-01-29T10:55:56;3.03;;;0.90;;
19301;SDS011;9785;59.362;12.152;2023-01-29T10:58:33;2.77;;;0.87;;
19301;SDS011;9785;59.362;12.152;2023-01-29T11:01:06;3.63;;;0.70;;
19301;SDS011;9785;59.362;12.152;2023-01-29T11:03:35;1.97;;;0.77;;
19301;SDS011;9785;59.362;12.152;2023-01-29T11:06:08;1.67;;;0.40;;
19301;SDS011;9785;59.362;12.152;2023-01-29T11:08:39;0.47;;;0.23;;
19301;SDS011;9785;59.362;12.152;2023-01-29T11:11:11;4.80;;;1.00;;
19301;SDS011;9785;59.362;12.152;2023-01-29T11:13:41;3.30;;;0.50;;
19301;SDS011;9785;59.362;12.152;2023-01-29T11:16:10;0.40;;;0.40;;
19301;SDS011;9785;59.362;12.152;2023-01-29T11:18:49;2.10;;;0.60;;
19301;SDS011;9785;59.362;12.152;2023-01-29T11:21:18;1.30;;;0.60;;
19301;SDS011;9785;59.362;12.152;2023-01-29T11:23:46;1.90;;;0.57;;
19301;SDS011;9785;59.362;12.152;2023-01-29T11:26:17;5.73;;;0.93;;
19301;SDS011;9785;59.362;12.152;2023-01-29T11:28:48;2.93;;;0.90;;
19301;SDS011;9785;59.362;12.152;2023-01-29T11:31:18;4.03;;;0.93;;
19301;SDS011;9785;59.362;12.152;2023-01-29T11:33:47;4.50;;;1.10;;
19301;SDS011;9785;59.362;12.152;2023-01-29T11:36:21;2.30;;;0.80;;
19301;SDS011;9785;59.362;12.152;2023-01-29T11:39:12;1.90;;;0.70;;
19301;SDS011;9785;59.362;12.152;2023-01-29T11:41:43;2.77;;;0.60;;
19301;SDS011;9785;59.362;12.152;2023-01-29T11:44:16;1.67;;;0.70;;
19301;SDS011;9785;59.362;12.152;2023-01-29T11:46:45;5.40;;;0.60;;
19301;SDS011;9785;59.362;12.152;2023-01-29T11:49:19;1.03;;;0.47;;
19301;SDS011;9785;59.362;12.152;2023-01-29T11:51:50;2.70;;;0.83;;
19301;SDS011;9785;59.362;12.152;2023-01-29T11:54:19;2.77;;;0.87;;
19301;SDS011;9785;59.362;12.152;2023-01-29T11:56:51;3.43;;;0.90;;
19301;SDS011;9785;59.362;12.152;2023-01-29T11:59:24;7.67;;;0.90;;
19301;SDS011;9785;59.362;12.152;2023-01-29T12:01:54;1.90;;;0.40;;
19301;SDS011;9785;59.362;12.152;2023-01-29T12:04:23;3.63;;;0.50;;
19301;SDS011;9785;59.362;12.152;2023-01-29T12:06:53;3.67;;;0.60;;
19301;SDS011;9785;59.362;12.152;2023-01-29T12:09:22;1.10;;;0.70;;
19301;SDS011;9785;59.362;12.152;2023-01-29T12:11:54;4.37;;;0.70;;
19301;SDS011;9785;59.362;12.152;2023-01-29T12:14:28;3.10;;;0.70;;
19301;SDS011;9785;59.362;12.152;2023-01-29T12:17:00;3.37;;;0.77;;
19301;SDS011;9785;59.362;12.152;2023-01-29T12:19:32;5.27;;;0.70;;
19301;SDS011;9785;59.362;12.152;2023-01-29T12:22:03;3.70;;;0.70;;
19301;SDS011;9785;59.362;12.152;2023-01-29T12:24:34;3.57;;;0.93;;
19301;SDS011;9785;59.362;12.152;2023-01-29T12:27:08;4.33;;;0.90;;
19301;SDS011;9785;59.362;12.152;2023-01-29T12:29:39;7.03;;;0.97;;
19301;SDS011;9785;59.362;12.152;2023-01-29T12:32:13;6.53;;;1.20;;
19301;SDS011;9785;59.362;12.152;2023-01-29T12:34:47;3.90;;;0.80;;
19301;SDS011;9785;59.362;12.152;2023-01-29T12:37:19;1.60;;;0.60;;
19301;SDS011;9785;59.362;12.152;2023-01-29T12:39:49;5.33;;;0.70;;
19301;SDS011;9785;59.362;12.152;2023-01-29T12:42:20;4.63;;;1.03;;
19301;SDS011;9785;59.362;12.152;2023-01-29T12:44:49;3.90;;;0.87;;
19301;SDS011;9785;59.362;12.152;2023-01-29T12:47:21;3.63;;;0.80;;
19301;SDS011;9785;59.362;12.152;2023-01-29T12:49:51;4.60;;;0.90;;
19301;SDS011;9785;59.362;12.152;2023-01-29T12:52:24;4.53;;;0.90;;
19301;SDS011;9785;59.362;12.152;2023-01-29T12:54:57;3.30;;;0.87;;
19301;SDS011;9785;59.362;12.152;2023-01-29T12:57:31;2.13;;;0.40;;
19301;SDS011;9785;59.362;12.152;2023-01-29T13:00:02;4.33;;;1.10;;
19301;SDS011;9785;59.362;12.152;2023-01-29T13:02:32;3.23;;;0.67;;
19301;SDS011;9785;59.362;12.152;2023-01-29T13:05:03;3.17;;;0.90;;
19301;SDS011;9785;59.362;12.152;2023-01-29T13:07:34;5.33;;;1.20;;
19301;SDS011;9785;59.362;12.152;2023-01-29T13:10:06;7.27;;;0.80;;
19301;SDS011;9785;59.362;12.152;2023-01-29T13:12:37;4.77;;;0.63;;
19301;SDS011;9785;59.362;12.152;2023-01-29T13:15:12;2.70;;;0.70;;
19301;SDS011;9785;59.362;12.152;2023-01-29T13:17:42;3.53;;;0.90;;
19301;SDS011;9785;59.362;12.152;2023-01-29T13:20:15;4.77;;;0.73;;
19301;SDS011;9785;59.362;12.152;2023-01-29T13:22:45;5.77;;;0.90;;
19301;SDS011;9785;59.362;12.152;2023-01-29T13:25:14;5.70;;;0.90;;
19301;SDS011;9785;59.362;12.152;2023-01-29T13:27:44;7.07;;;0.90;;
19301;SDS011;9785;59.362;12.152;2023-01-29T13:30:23;5.67;;;0.80;;
19301;SDS011;9785;59.362;12.152;2023-01-29T13:32:51;4.63;;;1.13;;
19301;SDS011;9785;59.362;12.152;2023-01-29T13:35:21;5.63;;;0.97;;
19301;SDS011;9785;59.362;12.152;2023-01-29T13:37:51;9.37;;;1.17;;
19301;SDS011;9785;59.362;12.152;2023-01-29T13:40:20;4.50;;;0.80;;
19301;SDS011;9785;59.362;12.152;2023-01-29T13:42:52;10.23;;;1.13;;
19301;SDS011;9785;59.362;12.152;2023-01-29T13:45:23;4.57;;;0.70;;
19301;SDS011;9785;59.362;12.152;2023-01-29T13:47:52;1.07;;;0.60;;
19301;SDS011;9785;59.362;12.152;2023-01-29T13:50:23;6.60;;;0.70;;
19301;SDS011;9785;59.362;12.152;2023-01-29T13:52:53;8.53;;;1.00;;
19301;SDS011;9785;59.362;12.152;2023-01-29T13:55:23;4.87;;;0.87;;
19301;SDS011;9785;59.362;12.152;2023-01-29T13:57:58;6.87;;;1.33;;
19301;SDS011;9785;59.362;12.152;2023-01-29T14:06:41;10.00;;;1.07;;
19301;SDS011;9785;59.362;12.152;2023-01-29T14:11:57;7.63;;;1.03;;
19301;SDS011;9785;59.362;12.152;2023-01-29T14:17:16;7.67;;;1.07;;
19301;SDS011;9785;59.362;12.152;2023-01-29T14:19:45;3.83;;;1.10;;
19301;SDS011;9785;59.362;12.152;2023-01-29T14:22:18;6.00;;;1.13;;
19301;SDS011;9785;59.362;12.152;2023-01-29T14:24:47;5.83;;;1.10;;
19301;SDS011;9785;59.362;12.152;2023-01-29T14:27:18;5.47;;;1.03;;
19301;SDS011;9785;59.362;12.152;2023-01-29T14:29:48;6.27;;;1.33;;
19301;SDS011;9785;59.362;12.152;2023-01-29T14:32:24;11.20;;;1.30;;
19301;SDS011;9785;59.362;12.152;2023-01-29T14:34:56;8.00;;;1.67;;
19301;SDS011;9785;59.362;12.152;2023-01-29T14:37:28;7.17;;;0.97;;
19301;SDS011;9785;59.362;12.152;2023-01-29T14:39:58;8.00;;;1.10;;
19301;SDS011;9785;59.362;12.152;2023-01-29T14:42:35;5.73;;;0.83;;
19301;SDS011;9785;59.362;12.152;2023-01-29T14:45:08;5.20;;;1.07;;
19301;SDS011;9785;59.362;12.152;2023-01-29T14:53:17;10.30;;;1.03;;
19301;SDS011;9785;59.362;12.152;2023-01-29T14:55:48;6.53;;;1.40;;
19301;SDS011;9785;59.362;12.152;2023-01-29T14:58:20;8.70;;;1.17;;
19301;SDS011;9785;59.362;12.152;2023-01-29T15:00:50;9.17;;;1.33;;
19301;SDS011;9785;59.362;12.152;2023-01-29T15:03:21;7.57;;;1.80;;
19301;SDS011;9785;59.362;12.152;2023-01-29T15:05:55;8.57;;;1.40;;
19301;SDS011;9785;59.362;12.152;2023-01-29T15:08:28;7.33;;;1.07;;
19301;SDS011;9785;59.362;12.152;2023-01-29T15:11:01;6.00;;;1.00;;
19301;SDS011;9785;59.362;12.152;2023-01-29T15:13:49;9.07;;;2.43;;
19301;SDS011;9785;59.362;12.152;2023-01-29T15:16:20;9.23;;;1.30;;
19301;SDS011;9785;59.362;12.152;2023-01-29T15:18:51;15.33;;;1.33;;
19301;SDS011;9785;59.362;12.152;2023-01-29T15:21:22;9.07;;;1.73;;
19301;SDS011;9785;59.362;12.152;2023-01-29T15:24:02;14.67;;;1.73;;
19301;SDS011;9785;59.362;12.152;2023-01-29T15:26:31;7.30;;;1.53;;
19301;SDS011;9785;59.362;12.152;2023-01-29T15:29:02;8.37;;;1.60;;
19301;SDS011;9785;59.362;12.152;2023-01-29T15:31:31;8.50;;;1.30;;
19301;SDS011;9785;59.362;12.152;2023-01-29T15:34:03;12.40;;;1.30;;
19301;SDS011;9785;59.362;12.152;2023-01-29T15:36:35;8.67;;;1.23;;